Lytle, Ohio
Current Conditions -  °F | °C
As of 12:53 PM on Friday 31 Oct 2014 (Local Time) from KMGY Reporting Station
Light Rain Light Rain  
Wind Chill: 40°   Ceiling: 2200
Heat Index: 44°   Visibility: 6mi
Dew Point: 41°   Wind: 7mph
Humidity: 89%   Direction: 280°W
Pressure: 29.91"   Gusts: NA
Location:  39.5416°N, 84.0704°W
Report Text: KMGY 311653Z AUTO 28006KT 6SM -RA BR SCT013 OVC022 07/05 A2991 RMK AO2 SLP133 P0004 T00670050
Loading
Personal Weather Stations






























Interactive Weather Map
Tropical Storm Tracking
New forecast layout! Learn more

10-Day Weather Forecast

Advertisements
Track Severe Weather on mobile